sensor_id;sensor_type;location;lat;lon;timestamp;P1;durP1;ratioP1;P2;durP2;ratioP2
69943;SDS011;57257;48.408;-4.498;2022-07-23T00:00:47;7.00;;;6.25;;
69943;SDS011;57257;48.408;-4.498;2022-07-23T00:03:13;6.75;;;6.75;;
69943;SDS011;57257;48.408;-4.498;2022-07-23T00:05:39;5.25;;;5.25;;
69943;SDS011;57257;48.408;-4.498;2022-07-23T00:08:05;8.00;;;6.75;;
69943;SDS011;57257;48.408;-4.498;2022-07-23T00:10:31;6.50;;;5.25;;
69943;SDS011;57257;48.408;-4.498;2022-07-23T00:12:57;5.25;;;5.25;;
69943;SDS011;57257;48.408;-4.498;2022-07-23T00:15:23;5.25;;;5.25;;
69943;SDS011;57257;48.408;-4.498;2022-07-23T00:17:49;6.50;;;6.50;;
69943;SDS011;57257;48.408;-4.498;2022-07-23T00:20:14;5.50;;;5.25;;
69943;SDS011;57257;48.408;-4.498;2022-07-23T00:22:50;6.00;;;6.00;;
69943;SDS011;57257;48.408;-4.498;2022-07-23T00:25:16;7.00;;;7.00;;
69943;SDS011;57257;48.408;-4.498;2022-07-23T00:27:42;6.50;;;6.00;;
69943;SDS011;57257;48.408;-4.498;2022-07-23T00:30:08;6.25;;;6.25;;
69943;SDS011;57257;48.408;-4.498;2022-07-23T00:32:47;7.50;;;7.00;;
69943;SDS011;57257;48.408;-4.498;2022-07-23T00:35:14;6.50;;;6.00;;
69943;SDS011;57257;48.408;-4.498;2022-07-23T00:37:40;8.00;;;8.00;;
69943;SDS011;57257;48.408;-4.498;2022-07-23T00:40:06;7.50;;;7.50;;
69943;SDS011;57257;48.408;-4.498;2022-07-23T00:42:32;6.75;;;6.75;;
69943;SDS011;57257;48.408;-4.498;2022-07-23T00:44:58;8.50;;;8.25;;
69943;SDS011;57257;48.408;-4.498;2022-07-23T00:47:23;8.00;;;8.00;;
69943;SDS011;57257;48.408;-4.498;2022-07-23T00:49:49;8.50;;;8.00;;
69943;SDS011;57257;48.408;-4.498;2022-07-23T00:52:14;9.00;;;9.00;;
69943;SDS011;57257;48.408;-4.498;2022-07-23T00:54:40;9.25;;;9.00;;
69943;SDS011;57257;48.408;-4.498;2022-07-23T00:57:06;10.00;;;8.50;;
69943;SDS011;57257;48.408;-4.498;2022-07-23T00:59:31;9.50;;;9.50;;
69943;SDS011;57257;48.408;-4.498;2022-07-23T01:01:57;8.00;;;8.00;;
69943;SDS011;57257;48.408;-4.498;2022-07-23T01:04:22;7.75;;;7.50;;
69943;SDS011;57257;48.408;-4.498;2022-07-23T01:06:48;10.25;;;8.75;;
69943;SDS011;57257;48.408;-4.498;2022-07-23T01:09:13;8.50;;;8.00;;
69943;SDS011;57257;48.408;-4.498;2022-07-23T01:11:39;11.00;;;9.00;;
69943;SDS011;57257;48.408;-4.498;2022-07-23T01:14:12;8.75;;;8.50;;
69943;SDS011;57257;48.408;-4.498;2022-07-23T01:16:38;9.50;;;8.50;;
69943;SDS011;57257;48.408;-4.498;2022-07-23T01:19:04;8.75;;;8.75;;
69943;SDS011;57257;48.408;-4.498;2022-07-23T01:21:32;10.75;;;10.75;;
69943;SDS011;57257;48.408;-4.498;2022-07-23T01:24:00;8.00;;;8.00;;
69943;SDS011;57257;48.408;-4.498;2022-07-23T01:26:26;7.75;;;7.75;;
69943;SDS011;57257;48.408;-4.498;2022-07-23T01:28:51;7.75;;;7.00;;
69943;SDS011;57257;48.408;-4.498;2022-07-23T01:31:17;8.00;;;8.00;;
69943;SDS011;57257;48.408;-4.498;2022-07-23T01:33:44;8.75;;;8.00;;
69943;SDS011;57257;48.408;-4.498;2022-07-23T01:36:09;8.50;;;8.25;;
69943;SDS011;57257;48.408;-4.498;2022-07-23T01:38:35;9.25;;;9.25;;
69943;SDS011;57257;48.408;-4.498;2022-07-23T01:41:00;8.50;;;7.25;;
69943;SDS011;57257;48.408;-4.498;2022-07-23T01:43:26;9.00;;;9.00;;
69943;SDS011;57257;48.408;-4.498;2022-07-23T01:45:51;9.25;;;8.75;;
69943;SDS011;57257;48.408;-4.498;2022-07-23T01:48:17;8.00;;;8.00;;
69943;SDS011;57257;48.408;-4.498;2022-07-23T01:50:42;7.25;;;7.25;;
69943;SDS011;57257;48.408;-4.498;2022-07-23T01:53:07;8.25;;;8.25;;
69943;SDS011;57257;48.408;-4.498;2022-07-23T01:55:33;10.25;;;9.00;;
69943;SDS011;57257;48.408;-4.498;2022-07-23T01:57:58;10.00;;;9.50;;
69943;SDS011;57257;48.408;-4.498;2022-07-23T02:00:24;9.25;;;9.25;;
69943;SDS011;57257;48.408;-4.498;2022-07-23T02:02:49;13.25;;;9.75;;
69943;SDS011;57257;48.408;-4.498;2022-07-23T02:05:15;9.25;;;8.50;;
69943;SDS011;57257;48.408;-4.498;2022-07-23T02:07:40;8.00;;;8.00;;
69943;SDS011;57257;48.408;-4.498;2022-07-23T02:10:07;7.00;;;6.00;;
69943;SDS011;57257;48.408;-4.498;2022-07-23T02:12:33;8.25;;;6.75;;
69943;SDS011;57257;48.408;-4.498;2022-07-23T02:14:58;10.00;;;8.25;;
69943;SDS011;57257;48.408;-4.498;2022-07-23T02:17:24;6.00;;;6.00;;
69943;SDS011;57257;48.408;-4.498;2022-07-23T02:19:49;9.00;;;9.00;;
69943;SDS011;57257;48.408;-4.498;2022-07-23T02:22:14;8.00;;;8.00;;
69943;SDS011;57257;48.408;-4.498;2022-07-23T02:24:40;6.00;;;6.00;;
69943;SDS011;57257;48.408;-4.498;2022-07-23T02:27:05;7.00;;;7.00;;
69943;SDS011;57257;48.408;-4.498;2022-07-23T02:29:31;6.25;;;6.25;;
69943;SDS011;57257;48.408;-4.498;2022-07-23T02:31:56;6.25;;;6.00;;
69943;SDS011;57257;48.408;-4.498;2022-07-23T02:34:21;6.75;;;5.75;;
69943;SDS011;57257;48.408;-4.498;2022-07-23T02:36:47;6.00;;;6.00;;
69943;SDS011;57257;48.408;-4.498;2022-07-23T02:39:12;8.75;;;8.00;;
69943;SDS011;57257;48.408;-4.498;2022-07-23T02:41:38;7.00;;;6.00;;
69943;SDS011;57257;48.408;-4.498;2022-07-23T02:44:03;5.50;;;5.25;;
69943;SDS011;57257;48.408;-4.498;2022-07-23T02:46:28;6.75;;;6.50;;
69943;SDS011;57257;48.408;-4.498;2022-07-23T02:48:54;9.00;;;7.00;;
69943;SDS011;57257;48.408;-4.498;2022-07-23T02:51:19;5.75;;;5.75;;
69943;SDS011;57257;48.408;-4.498;2022-07-23T02:53:45;5.50;;;5.50;;
69943;SDS011;57257;48.408;-4.498;2022-07-23T02:56:10;7.75;;;6.00;;
69943;SDS011;57257;48.408;-4.498;2022-07-23T02:58:35;6.75;;;6.75;;
69943;SDS011;57257;48.408;-4.498;2022-07-23T03:01:01;6.50;;;5.50;;
69943;SDS011;57257;48.408;-4.498;2022-07-23T03:03:26;7.75;;;7.75;;
69943;SDS011;57257;48.408;-4.498;2022-07-23T03:05:52;5.00;;;5.00;;
69943;SDS011;57257;48.408;-4.498;2022-07-23T03:08:17;7.00;;;4.25;;
69943;SDS011;57257;48.408;-4.498;2022-07-23T03:10:43;8.50;;;6.75;;
69943;SDS011;57257;48.408;-4.498;2022-07-23T03:13:08;7.00;;;6.50;;
69943;SDS011;57257;48.408;-4.498;2022-07-23T03:15:34;7.50;;;6.50;;
69943;SDS011;57257;48.408;-4.498;2022-07-23T03:17:59;5.00;;;5.00;;
69943;SDS011;57257;48.408;-4.498;2022-07-23T03:20:24;5.00;;;5.00;;
69943;SDS011;57257;48.408;-4.498;2022-07-23T03:22:50;6.00;;;5.00;;
69943;SDS011;57257;48.408;-4.498;2022-07-23T03:25:15;4.50;;;4.50;;
69943;SDS011;57257;48.408;-4.498;2022-07-23T03:27:40;5.00;;;5.00;;
69943;SDS011;57257;48.408;-4.498;2022-07-23T03:30:06;5.50;;;3.75;;
69943;SDS011;57257;48.408;-4.498;2022-07-23T03:32:32;4.50;;;4.50;;
69943;SDS011;57257;48.408;-4.498;2022-07-23T03:34:57;7.00;;;6.00;;
69943;SDS011;57257;48.408;-4.498;2022-07-23T03:37:23;6.00;;;6.00;;
69943;SDS011;57257;48.408;-4.498;2022-07-23T03:39:48;6.00;;;6.00;;
69943;SDS011;57257;48.408;-4.498;2022-07-23T03:42:14;6.00;;;6.00;;
69943;SDS011;57257;48.408;-4.498;2022-07-23T03:44:39;6.00;;;6.00;;
69943;SDS011;57257;48.408;-4.498;2022-07-23T03:47:05;6.25;;;6.25;;
69943;SDS011;57257;48.408;-4.498;2022-07-23T03:49:31;5.00;;;5.00;;
69943;SDS011;57257;48.408;-4.498;2022-07-23T03:51:56;6.00;;;5.00;;
69943;SDS011;57257;48.408;-4.498;2022-07-23T03:54:22;9.75;;;6.00;;
69943;SDS011;57257;48.408;-4.498;2022-07-23T03:56:47;5.00;;;4.50;;
69943;SDS011;57257;48.408;-4.498;2022-07-23T03:59:13;5.75;;;5.75;;
69943;SDS011;57257;48.408;-4.498;2022-07-23T04:01:38;5.00;;;5.00;;
69943;SDS011;57257;48.408;-4.498;2022-07-23T04:04:04;4.25;;;4.25;;
69943;SDS011;57257;48.408;-4.498;2022-07-23T04:06:29;5.25;;;5.25;;
69943;SDS011;57257;48.408;-4.498;2022-07-23T04:08:55;5.00;;;5.00;;
69943;SDS011;57257;48.408;-4.498;2022-07-23T04:11:21;4.00;;;4.00;;
69943;SDS011;57257;48.408;-4.498;2022-07-23T04:13:46;4.75;;;4.75;;
69943;SDS011;57257;48.408;-4.498;2022-07-23T04:16:12;4.00;;;4.00;;
69943;SDS011;57257;48.408;-4.498;2022-07-23T04:18:37;3.75;;;3.75;;
69943;SDS011;57257;48.408;-4.498;2022-07-23T04:21:03;5.50;;;5.00;;
69943;SDS011;57257;48.408;-4.498;2022-07-23T04:23:29;4.00;;;4.00;;
69943;SDS011;57257;48.408;-4.498;2022-07-23T04:25:54;5.75;;;5.00;;
69943;SDS011;57257;48.408;-4.498;2022-07-23T04:28:19;4.50;;;3.00;;
69943;SDS011;57257;48.408;-4.498;2022-07-23T04:30:45;4.00;;;4.00;;
69943;SDS011;57257;48.408;-4.498;2022-07-23T04:33:10;3.75;;;3.75;;
69943;SDS011;57257;48.408;-4.498;2022-07-23T04:35:36;4.25;;;4.25;;
69943;SDS011;57257;48.408;-4.498;2022-07-23T04:38:02;5.00;;;4.25;;
69943;SDS011;57257;48.408;-4.498;2022-07-23T04:40:28;4.25;;;4.00;;
69943;SDS011;57257;48.408;-4.498;2022-07-23T04:42:54;4.75;;;4.00;;
69943;SDS011;57257;48.408;-4.498;2022-07-23T04:45:19;5.00;;;5.00;;
69943;SDS011;57257;48.408;-4.498;2022-07-23T04:47:45;5.25;;;5.25;;
69943;SDS011;57257;48.408;-4.498;2022-07-23T04:50:10;6.00;;;4.50;;
69943;SDS011;57257;48.408;-4.498;2022-07-23T04:52:36;4.75;;;4.75;;
69943;SDS011;57257;48.408;-4.498;2022-07-23T04:55:01;4.75;;;4.75;;
69943;SDS011;57257;48.408;-4.498;2022-07-23T04:57:27;4.00;;;4.00;;
69943;SDS011;57257;48.408;-4.498;2022-07-23T04:59:52;4.75;;;4.50;;
69943;SDS011;57257;48.408;-4.498;2022-07-23T05:02:18;4.00;;;4.00;;
69943;SDS011;57257;48.408;-4.498;2022-07-23T05:04:43;4.75;;;4.75;;
69943;SDS011;57257;48.408;-4.498;2022-07-23T05:07:09;4.25;;;4.25;;
69943;SDS011;57257;48.408;-4.498;2022-07-23T05:09:34;4.50;;;4.50;;
69943;SDS011;57257;48.408;-4.498;2022-07-23T05:12:00;3.00;;;3.00;;
69943;SDS011;57257;48.408;-4.498;2022-07-23T05:14:25;4.00;;;4.00;;
69943;SDS011;57257;48.408;-4.498;2022-07-23T05:16:51;3.00;;;3.00;;
69943;SDS011;57257;48.408;-4.498;2022-07-23T05:19:17;4.00;;;4.00;;
69943;SDS011;57257;48.408;-4.498;2022-07-23T05:21:42;4.25;;;4.25;;
69943;SDS011;57257;48.408;-4.498;2022-07-23T05:24:08;5.00;;;4.00;;
69943;SDS011;57257;48.408;-4.498;2022-07-23T05:26:33;5.00;;;3.75;;
69943;SDS011;57257;48.408;-4.498;2022-07-23T05:28:59;2.50;;;2.50;;
69943;SDS011;57257;48.408;-4.498;2022-07-23T05:31:24;4.00;;;4.00;;
69943;SDS011;57257;48.408;-4.498;2022-07-23T05:33:49;3.75;;;3.75;;
69943;SDS011;57257;48.408;-4.498;2022-07-23T05:36:15;3.00;;;3.00;;
69943;SDS011;57257;48.408;-4.498;2022-07-23T05:38:40;3.75;;;2.50;;
69943;SDS011;57257;48.408;-4.498;2022-07-23T05:41:06;5.50;;;3.75;;
69943;SDS011;57257;48.408;-4.498;2022-07-23T05:43:31;4.00;;;4.00;;
69943;SDS011;57257;48.408;-4.498;2022-07-23T05:45:57;3.00;;;3.00;;
69943;SDS011;57257;48.408;-4.498;2022-07-23T05:48:22;3.50;;;3.00;;
69943;SDS011;57257;48.408;-4.498;2022-07-23T05:50:48;3.25;;;3.25;;
69943;SDS011;57257;48.408;-4.498;2022-07-23T05:53:13;3.50;;;3.50;;
69943;SDS011;57257;48.408;-4.498;2022-07-23T05:55:39;3.00;;;3.00;;
69943;SDS011;57257;48.408;-4.498;2022-07-23T05:58:04;3.00;;;1.25;;
69943;SDS011;57257;48.408;-4.498;2022-07-23T06:00:30;1.25;;;1.25;;
69943;SDS011;57257;48.408;-4.498;2022-07-23T06:02:55;4.00;;;4.00;;
69943;SDS011;57257;48.408;-4.498;2022-07-23T06:05:21;3.25;;;3.25;;
69943;SDS011;57257;48.408;-4.498;2022-07-23T06:07:47;4.50;;;2.50;;
69943;SDS011;57257;48.408;-4.498;2022-07-23T06:10:12;3.00;;;3.00;;
69943;SDS011;57257;48.408;-4.498;2022-07-23T06:12:37;1.75;;;1.75;;
69943;SDS011;57257;48.408;-4.498;2022-07-23T06:15:03;4.25;;;4.00;;
69943;SDS011;57257;48.408;-4.498;2022-07-23T06:17:29;3.00;;;3.00;;
69943;SDS011;57257;48.408;-4.498;2022-07-23T06:19:54;4.75;;;3.25;;
69943;SDS011;57257;48.408;-4.498;2022-07-23T06:22:21;6.00;;;3.00;;
69943;SDS011;57257;48.408;-4.498;2022-07-23T06:24:47;4.25;;;3.00;;
69943;SDS011;57257;48.408;-4.498;2022-07-23T06:27:12;3.25;;;3.25;;
69943;SDS011;57257;48.408;-4.498;2022-07-23T06:29:38;3.25;;;3.25;;
69943;SDS011;57257;48.408;-4.498;2022-07-23T06:32:05;3.75;;;3.75;;
69943;SDS011;57257;48.408;-4.498;2022-07-23T06:34:31;2.25;;;2.25;;
69943;SDS011;57257;48.408;-4.498;2022-07-23T06:36:57;2.50;;;2.00;;
69943;SDS011;57257;48.408;-4.498;2022-07-23T06:39:22;3.75;;;3.25;;
69943;SDS011;57257;48.408;-4.498;2022-07-23T06:41:48;3.00;;;3.00;;
69943;SDS011;57257;48.408;-4.498;2022-07-23T06:44:13;2.75;;;2.75;;
69943;SDS011;57257;48.408;-4.498;2022-07-23T06:46:39;4.00;;;4.00;;
69943;SDS011;57257;48.408;-4.498;2022-07-23T06:49:04;5.00;;;3.75;;
69943;SDS011;57257;48.408;-4.498;2022-07-23T06:51:30;3.00;;;3.00;;
69943;SDS011;57257;48.408;-4.498;2022-07-23T06:53:55;3.00;;;3.00;;
69943;SDS011;57257;48.408;-4.498;2022-07-23T06:56:21;5.50;;;3.75;;
69943;SDS011;57257;48.408;-4.498;2022-07-23T06:58:46;4.00;;;3.50;;
69943;SDS011;57257;48.408;-4.498;2022-07-23T07:01:12;4.75;;;2.75;;
69943;SDS011;57257;48.408;-4.498;2022-07-23T07:03:37;2.75;;;2.75;;
69943;SDS011;57257;48.408;-4.498;2022-07-23T07:06:03;4.50;;;2.75;;
69943;SDS011;57257;48.408;-4.498;2022-07-23T07:08:28;3.00;;;3.00;;
69943;SDS011;57257;48.408;-4.498;2022-07-23T07:10:54;2.75;;;2.75;;
69943;SDS011;57257;48.408;-4.498;2022-07-23T07:13:19;3.00;;;2.25;;
69943;SDS011;57257;48.408;-4.498;2022-07-23T07:15:44;4.50;;;3.00;;
69943;SDS011;57257;48.408;-4.498;2022-07-23T07:18:10;5.50;;;4.00;;
69943;SDS011;57257;48.408;-4.498;2022-07-23T07:20:35;2.00;;;2.00;;
69943;SDS011;57257;48.408;-4.498;2022-07-23T07:23:01;3.25;;;3.25;;
69943;SDS011;57257;48.408;-4.498;2022-07-23T07:25:26;2.00;;;2.00;;
69943;SDS011;57257;48.408;-4.498;2022-07-23T07:27:52;3.00;;;3.00;;
69943;SDS011;57257;48.408;-4.498;2022-07-23T07:30:17;3.50;;;3.00;;
69943;SDS011;57257;48.408;-4.498;2022-07-23T07:32:42;2.50;;;2.50;;
69943;SDS011;57257;48.408;-4.498;2022-07-23T07:35:08;3.00;;;3.00;;
69943;SDS011;57257;48.408;-4.498;2022-07-23T07:37:34;3.00;;;3.00;;
69943;SDS011;57257;48.408;-4.498;2022-07-23T07:40:00;3.75;;;3.00;;
69943;SDS011;57257;48.408;-4.498;2022-07-23T07:42:25;3.25;;;3.25;;
69943;SDS011;57257;48.408;-4.498;2022-07-23T07:44:51;3.00;;;3.00;;
69943;SDS011;57257;48.408;-4.498;2022-07-23T07:47:17;3.00;;;1.50;;
69943;SDS011;57257;48.408;-4.498;2022-07-23T07:49:42;2.25;;;2.25;;
69943;SDS011;57257;48.408;-4.498;2022-07-23T07:52:08;3.00;;;3.00;;
69943;SDS011;57257;48.408;-4.498;2022-07-23T07:54:34;3.50;;;3.50;;
69943;SDS011;57257;48.408;-4.498;2022-07-23T07:57:00;2.75;;;2.75;;
69943;SDS011;57257;48.408;-4.498;2022-07-23T07:59:25;3.75;;;3.00;;
69943;SDS011;57257;48.408;-4.498;2022-07-23T08:01:51;2.25;;;2.25;;
69943;SDS011;57257;48.408;-4.498;2022-07-23T08:04:17;6.00;;;4.00;;
69943;SDS011;57257;48.408;-4.498;2022-07-23T08:06:42;2.00;;;2.00;;
69943;SDS011;57257;48.408;-4.498;2022-07-23T08:09:07;3.25;;;3.00;;
69943;SDS011;57257;48.408;-4.498;2022-07-23T08:11:33;4.75;;;4.00;;
69943;SDS011;57257;48.408;-4.498;2022-07-23T08:13:59;1.25;;;1.25;;
69943;SDS011;57257;48.408;-4.498;2022-07-23T08:16:25;4.00;;;4.00;;
69943;SDS011;57257;48.408;-4.498;2022-07-23T08:18:50;3.00;;;3.00;;
69943;SDS011;57257;48.408;-4.498;2022-07-23T08:21:15;2.00;;;2.00;;
69943;SDS011;57257;48.408;-4.498;2022-07-23T08:23:41;2.25;;;2.00;;
69943;SDS011;57257;48.408;-4.498;2022-07-23T08:26:06;3.00;;;2.50;;
69943;SDS011;57257;48.408;-4.498;2022-07-23T08:28:32;3.00;;;3.00;;
69943;SDS011;57257;48.408;-4.498;2022-07-23T08:30:58;2.50;;;2.50;;
69943;SDS011;57257;48.408;-4.498;2022-07-23T08:33:24;3.00;;;2.75;;
69943;SDS011;57257;48.408;-4.498;2022-07-23T08:35:50;2.00;;;2.00;;
69943;SDS011;57257;48.408;-4.498;2022-07-23T08:38:18;3.00;;;3.00;;
69943;SDS011;57257;48.408;-4.498;2022-07-23T08:40:46;2.75;;;2.25;;
69943;SDS011;57257;48.408;-4.498;2022-07-23T08:43:18;1.50;;;1.50;;
69943;SDS011;57257;48.408;-4.498;2022-07-23T08:45:46;3.00;;;3.00;;
69943;SDS011;57257;48.408;-4.498;2022-07-23T08:48:15;2.25;;;2.25;;
69943;SDS011;57257;48.408;-4.498;2022-07-23T08:50:52;2.25;;;2.25;;
69943;SDS011;57257;48.408;-4.498;2022-07-23T08:53:20;2.00;;;2.00;;
69943;SDS011;57257;48.408;-4.498;2022-07-23T08:55:47;2.25;;;2.25;;
69943;SDS011;57257;48.408;-4.498;2022-07-23T08:58:14;3.00;;;2.25;;
69943;SDS011;57257;48.408;-4.498;2022-07-23T09:00:41;4.50;;;4.50;;
69943;SDS011;57257;48.408;-4.498;2022-07-23T09:03:07;2.75;;;2.75;;
69943;SDS011;57257;48.408;-4.498;2022-07-23T09:05:32;3.00;;;3.00;;
69943;SDS011;57257;48.408;-4.498;2022-07-23T09:08:08;3.00;;;2.00;;
69943;SDS011;57257;48.408;-4.498;2022-07-23T09:13:25;2.75;;;2.00;;
69943;SDS011;57257;48.408;-4.498;2022-07-23T09:15:54;2.00;;;2.00;;
69943;SDS011;57257;48.408;-4.498;2022-07-23T09:18:56;3.00;;;3.00;;
69943;SDS011;57257;48.408;-4.498;2022-07-23T09:21:31;4.00;;;3.00;;
69943;SDS011;57257;48.408;-4.498;2022-07-23T09:26:41;3.00;;;3.00;;
69943;SDS011;57257;48.408;-4.498;2022-07-23T09:34:30;3.00;;;2.50;;
69943;SDS011;57257;48.408;-4.498;2022-07-23T09:37:12;3.00;;;2.75;;
69943;SDS011;57257;48.408;-4.498;2022-07-23T09:39:39;2.25;;;2.25;;
69943;SDS011;57257;48.408;-4.498;2022-07-23T09:42:13;2.00;;;2.00;;
69943;SDS011;57257;48.408;-4.498;2022-07-23T09:44:49;2.00;;;1.75;;
69943;SDS011;57257;48.408;-4.498;2022-07-23T09:47:16;2.00;;;2.00;;
69943;SDS011;57257;48.408;-4.498;2022-07-23T09:52:35;2.75;;;2.75;;
69943;SDS011;57257;48.408;-4.498;2022-07-23T09:55:07;2.50;;;2.50;;
69943;SDS011;57257;48.408;-4.498;2022-07-23T09:57:33;2.75;;;2.75;;
69943;SDS011;57257;48.408;-4.498;2022-07-23T10:00:00;3.25;;;2.75;;
69943;SDS011;57257;48.408;-4.498;2022-07-23T10:02:28;2.25;;;2.25;;
69943;SDS011;57257;48.408;-4.498;2022-07-23T10:04:57;7.00;;;6.00;;
69943;SDS011;57257;48.408;-4.498;2022-07-23T10:07:23;10.25;;;9.25;;
69943;SDS011;57257;48.408;-4.498;2022-07-23T10:09:51;4.50;;;4.50;;
69943;SDS011;57257;48.408;-4.498;2022-07-23T10:12:18;2.75;;;2.75;;
69943;SDS011;57257;48.408;-4.498;2022-07-23T10:14:58;1.75;;;1.00;;
69943;SDS011;57257;48.408;-4.498;2022-07-23T10:17:25;3.00;;;3.00;;
69943;SDS011;57257;48.408;-4.498;2022-07-23T10:19:52;2.00;;;2.00;;
69943;SDS011;57257;48.408;-4.498;2022-07-23T10:22:24;5.25;;;4.75;;
69943;SDS011;57257;48.408;-4.498;2022-07-23T10:24:53;6.25;;;5.25;;
69943;SDS011;57257;48.408;-4.498;2022-07-23T10:30:13;4.75;;;4.75;;
69943;SDS011;57257;48.408;-4.498;2022-07-23T10:35:37;2.50;;;2.50;;
69943;SDS011;57257;48.408;-4.498;2022-07-23T10:43:25;2.00;;;2.00;;
69943;SDS011;57257;48.408;-4.498;2022-07-23T10:45:51;2.00;;;2.00;;
69943;SDS011;57257;48.408;-4.498;2022-07-23T10:48:18;1.00;;;1.00;;
69943;SDS011;57257;48.408;-4.498;2022-07-23T10:53:53;1.75;;;1.75;;
69943;SDS011;57257;48.408;-4.498;2022-07-23T10:59:22;1.00;;;1.00;;
69943;SDS011;57257;48.408;-4.498;2022-07-23T11:01:47;3.00;;;3.00;;
69943;SDS011;57257;48.408;-4.498;2022-07-23T11:04:13;3.00;;;1.25;;
69943;SDS011;57257;48.408;-4.498;2022-07-23T11:09:28;3.00;;;2.00;;
69943;SDS011;57257;48.408;-4.498;2022-07-23T11:17:23;2.00;;;2.00;;
69943;SDS011;57257;48.408;-4.498;2022-07-23T11:22:37;1.75;;;1.75;;
69943;SDS011;57257;48.408;-4.498;2022-07-23T11:25:09;2.00;;;2.00;;
69943;SDS011;57257;48.408;-4.498;2022-07-23T11:27:39;1.50;;;1.50;;
69943;SDS011;57257;48.408;-4.498;2022-07-23T11:30:09;2.00;;;2.00;;
69943;SDS011;57257;48.408;-4.498;2022-07-23T11:35:37;2.25;;;2.25;;
69943;SDS011;57257;48.408;-4.498;2022-07-23T11:40:31;2.00;;;2.00;;
69943;SDS011;57257;48.408;-4.498;2022-07-23T11:42:58;2.25;;;2.00;;
69943;SDS011;57257;48.408;-4.498;2022-07-23T11:45:29;3.00;;;3.00;;
69943;SDS011;57257;48.408;-4.498;2022-07-23T11:47:57;3.00;;;3.00;;
69943;SDS011;57257;48.408;-4.498;2022-07-23T11:50:23;3.00;;;3.00;;
69943;SDS011;57257;48.408;-4.498;2022-07-23T11:52:50;3.25;;;3.00;;
69943;SDS011;57257;48.408;-4.498;2022-07-23T11:55:17;4.00;;;2.00;;
69943;SDS011;57257;48.408;-4.498;2022-07-23T11:57:42;2.00;;;1.25;;
69943;SDS011;57257;48.408;-4.498;2022-07-23T12:02:43;3.00;;;2.00;;
69943;SDS011;57257;48.408;-4.498;2022-07-23T12:05:15;3.00;;;3.00;;
69943;SDS011;57257;48.408;-4.498;2022-07-23T12:07:43;1.50;;;1.50;;
69943;SDS011;57257;48.408;-4.498;2022-07-23T12:10:20;1.00;;;1.00;;
69943;SDS011;57257;48.408;-4.498;2022-07-23T12:12:49;4.00;;;3.00;;
69943;SDS011;57257;48.408;-4.498;2022-07-23T12:15:30;3.75;;;3.75;;
69943;SDS011;57257;48.408;-4.498;2022-07-23T12:17:58;2.00;;;2.00;;
69943;SDS011;57257;48.408;-4.498;2022-07-23T12:20:25;2.00;;;2.00;;
69943;SDS011;57257;48.408;-4.498;2022-07-23T12:22:58;3.00;;;3.00;;
69943;SDS011;57257;48.408;-4.498;2022-07-23T12:25:28;1.75;;;1.75;;
69943;SDS011;57257;48.408;-4.498;2022-07-23T12:30:37;3.00;;;2.00;;
69943;SDS011;57257;48.408;-4.498;2022-07-23T12:33:12;3.00;;;2.50;;
69943;SDS011;57257;48.408;-4.498;2022-07-23T12:35:43;4.00;;;3.00;;
69943;SDS011;57257;48.408;-4.498;2022-07-23T12:38:20;2.25;;;2.25;;
69943;SDS011;57257;48.408;-4.498;2022-07-23T12:40:48;2.00;;;1.75;;
69943;SDS011;57257;48.408;-4.498;2022-07-23T12:43:23;0.00;;;0.00;;
69943;SDS011;57257;48.408;-4.498;2022-07-23T12:53:55;2.00;;;2.00;;
69943;SDS011;57257;48.408;-4.498;2022-07-23T12:56:32;2.00;;;2.00;;
69943;SDS011;57257;48.408;-4.498;2022-07-23T13:01:37;1.00;;;1.00;;
69943;SDS011;57257;48.408;-4.498;2022-07-23T13:04:09;2.00;;;2.00;;
69943;SDS011;57257;48.408;-4.498;2022-07-23T13:06:41;1.75;;;1.75;;
69943;SDS011;57257;48.408;-4.498;2022-07-23T13:09:10;2.00;;;2.00;;
69943;SDS011;57257;48.408;-4.498;2022-07-23T13:11:40;2.00;;;2.00;;
69943;SDS011;57257;48.408;-4.498;2022-07-23T13:14:05;2.00;;;2.00;;
69943;SDS011;57257;48.408;-4.498;2022-07-23T13:16:31;2.00;;;2.00;;
69943;SDS011;57257;48.408;-4.498;2022-07-23T13:18:58;2.00;;;2.00;;
69943;SDS011;57257;48.408;-4.498;2022-07-23T13:21:25;2.25;;;2.25;;
69943;SDS011;57257;48.408;-4.498;2022-07-23T13:23:51;2.00;;;2.00;;
69943;SDS011;57257;48.408;-4.498;2022-07-23T13:26:17;3.00;;;2.25;;
69943;SDS011;57257;48.408;-4.498;2022-07-23T13:28:43;3.00;;;3.00;;
69943;SDS011;57257;48.408;-4.498;2022-07-23T13:31:08;2.00;;;2.00;;
69943;SDS011;57257;48.408;-4.498;2022-07-23T13:33:34;1.75;;;1.75;;
69943;SDS011;57257;48.408;-4.498;2022-07-23T13:36:00;1.00;;;1.00;;
69943;SDS011;57257;48.408;-4.498;2022-07-23T13:38:26;2.00;;;2.00;;
69943;SDS011;57257;48.408;-4.498;2022-07-23T13:40:52;2.00;;;2.00;;
69943;SDS011;57257;48.408;-4.498;2022-07-23T13:43:19;1.00;;;1.00;;
69943;SDS011;57257;48.408;-4.498;2022-07-23T13:45:46;4.00;;;2.50;;
69943;SDS011;57257;48.408;-4.498;2022-07-23T13:48:12;5.50;;;5.00;;
69943;SDS011;57257;48.408;-4.498;2022-07-23T13:50:39;0.75;;;0.75;;
69943;SDS011;57257;48.408;-4.498;2022-07-23T13:53:10;3.00;;;3.00;;
69943;SDS011;57257;48.408;-4.498;2022-07-23T13:55:39;1.00;;;1.00;;
69943;SDS011;57257;48.408;-4.498;2022-07-23T13:58:06;2.50;;;2.50;;
69943;SDS011;57257;48.408;-4.498;2022-07-23T14:00:33;3.00;;;2.00;;
69943;SDS011;57257;48.408;-4.498;2022-07-23T14:03:00;3.00;;;3.00;;
69943;SDS011;57257;48.408;-4.498;2022-07-23T14:05:26;2.00;;;2.00;;
69943;SDS011;57257;48.408;-4.498;2022-07-23T14:07:52;2.00;;;2.00;;
69943;SDS011;57257;48.408;-4.498;2022-07-23T14:10:19;2.25;;;2.00;;
69943;SDS011;57257;48.408;-4.498;2022-07-23T14:12:47;2.25;;;2.25;;
69943;SDS011;57257;48.408;-4.498;2022-07-23T14:15:13;2.00;;;2.00;;
69943;SDS011;57257;48.408;-4.498;2022-07-23T14:17:40;1.00;;;1.00;;
69943;SDS011;57257;48.408;-4.498;2022-07-23T14:20:07;3.00;;;3.00;;
69943;SDS011;57257;48.408;-4.498;2022-07-23T14:22:34;1.00;;;1.00;;
69943;SDS011;57257;48.408;-4.498;2022-07-23T14:25:00;2.00;;;2.00;;
69943;SDS011;57257;48.408;-4.498;2022-07-23T14:27:26;3.00;;;3.00;;
69943;SDS011;57257;48.408;-4.498;2022-07-23T14:29:53;3.00;;;3.00;;
69943;SDS011;57257;48.408;-4.498;2022-07-23T14:32:19;3.50;;;2.50;;
69943;SDS011;57257;48.408;-4.498;2022-07-23T14:34:45;2.00;;;2.00;;
69943;SDS011;57257;48.408;-4.498;2022-07-23T14:37:10;1.00;;;1.00;;
69943;SDS011;57257;48.408;-4.498;2022-07-23T14:39:37;1.25;;;1.25;;
69943;SDS011;57257;48.408;-4.498;2022-07-23T14:42:03;2.00;;;2.00;;
69943;SDS011;57257;48.408;-4.498;2022-07-23T14:44:29;3.00;;;3.00;;
69943;SDS011;57257;48.408;-4.498;2022-07-23T14:46:54;0.75;;;0.75;;
69943;SDS011;57257;48.408;-4.498;2022-07-23T14:49:20;2.25;;;2.25;;
69943;SDS011;57257;48.408;-4.498;2022-07-23T14:51:45;3.00;;;3.00;;
69943;SDS011;57257;48.408;-4.498;2022-07-23T14:54:11;4.00;;;2.00;;
69943;SDS011;57257;48.408;-4.498;2022-07-23T14:56:37;0.00;;;0.00;;
69943;SDS011;57257;48.408;-4.498;2022-07-23T14:59:05;3.00;;;2.00;;
69943;SDS011;57257;48.408;-4.498;2022-07-23T15:01:30;2.50;;;2.00;;
69943;SDS011;57257;48.408;-4.498;2022-07-23T15:03:56;2.00;;;2.00;;
69943;SDS011;57257;48.408;-4.498;2022-07-23T15:06:22;3.25;;;2.00;;
69943;SDS011;57257;48.408;-4.498;2022-07-23T15:08:47;3.00;;;2.00;;
69943;SDS011;57257;48.408;-4.498;2022-07-23T15:11:13;2.25;;;2.25;;
69943;SDS011;57257;48.408;-4.498;2022-07-23T15:13:38;2.25;;;2.25;;
69943;SDS011;57257;48.408;-4.498;2022-07-23T15:16:04;2.00;;;2.00;;
69943;SDS011;57257;48.408;-4.498;2022-07-23T15:18:30;2.00;;;2.00;;
69943;SDS011;57257;48.408;-4.498;2022-07-23T15:20:56;3.00;;;3.00;;
69943;SDS011;57257;48.408;-4.498;2022-07-23T15:23:21;2.00;;;2.00;;
69943;SDS011;57257;48.408;-4.498;2022-07-23T15:25:47;2.00;;;2.00;;
69943;SDS011;57257;48.408;-4.498;2022-07-23T15:28:12;2.00;;;2.00;;
69943;SDS011;57257;48.408;-4.498;2022-07-23T15:30:38;4.00;;;2.50;;
69943;SDS011;57257;48.408;-4.498;2022-07-23T15:33:04;3.50;;;2.00;;